Time;durP1;ratioP1;P1;durP2;ratioP2;P2;SDS_P1;SDS_P2;PMS_P1;PMS_P2;Temp;Humidity;BMP_temperature;BMP_pressure;BME280_temperature;BME280_humidity;BME280_pressure;Samples;Min_cycle;Max_cycle;Signal;HPM_P1;HPM_P2
2022/01/24 00:00:10;;;;;;;25.35;14.35;;;;;;;-3.34;71.20;101017.78;5010904;28;20121;-76
2022/01/24 00:02:36;;;;;;;24.90;13.77;;;;;;;-3.37;71.02;101020.09;5011372;28;20034;-76
2022/01/24 00:05:02;;;;;;;28.08;15.85;;;;;;;-3.45;70.80;101014.44;4979271;28;20041;-76
2022/01/24 00:07:27;;;;;;;23.98;13.48;;;;;;;-3.40;71.72;101024.94;5011374;28;20724;-76
2022/01/24 00:09:57;;;;;;;26.85;15.27;;;;;;;-3.49;70.51;101019.19;4995069;28;20042;-76
2022/01/24 00:12:34;;;;;;;24.42;13.77;;;;;;;-3.58;71.28;101015.19;5011298;28;20045;-76
2022/01/24 00:15:21;;;;;;;29.13;16.17;;;;;;;-3.60;71.18;101008.25;5011053;28;20038;-76
2022/01/24 00:18:02;;;;;;;24.27;13.77;;;;;;;-3.59;70.98;101013.44;5012270;28;20046;-78
2022/01/24 00:28:25;;;;;;;28.15;15.20;;;;;;;-3.68;71.79;101035.56;4997298;28;20045;-76
2022/01/24 00:30:51;;;;;;;28.05;15.70;;;;;;;-3.67;71.99;101037.34;4994616;28;20489;-77
2022/01/24 00:33:19;;;;;;;29.45;16.10;;;;;;;-3.60;72.31;101036.16;5043756;28;20076;-77
2022/01/24 00:35:47;;;;;;;28.67;16.45;;;;;;;-3.66;71.85;101038.25;5011290;28;20052;-77
2022/01/24 00:38:13;;;;;;;26.17;14.80;;;;;;;-3.58;71.92;101037.13;5010804;28;20516;-78
2022/01/24 00:40:42;;;;;;;;;;;;;;;-3.52;71.56;101036.72;4994903;28;20447;-75
2022/01/24 00:43:23;;;;;;;28.92;15.23;;;;;;;-3.41;72.14;101035.84;5027253;28;19978;-76
2022/01/24 00:48:53;;;;;;;30.08;16.80;;;;;;;-3.43;71.76;101032.34;5010602;28;20057;-76
2022/01/24 00:54:42;;;;;;;30.35;16.92;;;;;;;-3.67;72.48;101034.78;5010876;28;20428;-76
2022/01/24 00:56:47;;;;;;;29.27;15.88;;;;;;;-3.62;72.69;101030.97;5011356;28;20053;-76
2022/01/24 00:59:13;;;;;;;31.40;16.85;;;;;;;-3.63;72.48;101031.72;5020141;28;20473;-76
2022/01/24 01:01:38;;;;;;;30.52;15.50;;;;;;;-3.61;72.47;101027.66;4997581;28;20050;-77
2022/01/24 01:04:04;;;;;;;30.70;16.05;;;;;;;-3.53;71.67;101040.00;5030033;28;20041;-76
2022/01/24 01:06:30;;;;;;;29.20;16.42;;;;;;;-3.59;72.01;101026.09;4997517;28;20057;-77
2022/01/24 01:19:53;;;;;;;28.92;15.93;;;;;;;-3.75;71.88;101035.91;5014769;28;20042;-76
2022/01/24 01:22:19;;;;;;;27.88;16.75;;;;;;;-3.70;72.56;101037.13;4997367;28;20473;-77
2022/01/24 01:24:50;;;;;;;30.50;16.73;;;;;;;-3.69;72.19;101027.88;5013439;28;20076;-77
2022/01/24 01:27:22;;;;;;;31.00;17.77;;;;;;;-3.76;72.12;101036.66;5013537;28;20057;-77
2022/01/24 01:29:57;;;;;;;33.90;18.17;;;;;;;-3.80;71.75;101032.16;4982882;28;20049;-77
2022/01/24 01:33:32;;;;;;;30.50;16.70;;;;;;;-3.79;72.10;101038.09;4993935;28;20038;-77
2022/01/24 01:54:46;;;;;;;36.08;18.25;;;;;;;-3.73;72.27;101046.16;5021263;28;20045;-77
2022/01/24 01:57:13;;;;;;;33.72;18.70;;;;;;;-3.78;72.08;101038.19;5020266;28;20038;-77
2022/01/24 01:59:39;;;;;;;29.02;16.33;;;;;;;-3.71;72.74;101040.44;4994885;28;20039;-77
2022/01/24 02:02:04;;;;;;;34.05;18.92;;;;;;;-3.66;72.24;101043.31;4994571;28;20045;-76
2022/01/24 02:04:30;;;;;;;31.55;17.65;;;;;;;-3.63;72.22;101041.00;4993464;28;20046;-77
2022/01/24 02:06:56;;;;;;;34.58;18.65;;;;;;;-3.64;72.29;101037.56;5003132;28;20052;-77
2022/01/24 02:09:21;;;;;;;36.08;19.10;;;;;;;-3.70;72.74;101044.72;5014119;28;20038;-76
2022/01/24 02:11:52;;;;;;;39.28;19.55;;;;;;;-3.72;73.07;101043.72;4995771;28;20463;-77
2022/01/24 02:14:21;;;;;;;32.55;16.63;;;;;;;-3.69;72.79;101043.97;5012670;28;20060;-76
2022/01/24 02:16:55;;;;;;;37.60;19.20;;;;;;;-3.72;72.68;101047.91;4996926;28;20036;-77
2022/01/24 02:19:50;;;;;;;34.95;19.58;;;;;;;-3.71;72.96;101063.25;4997465;28;20038;-77
2022/01/24 02:24:58;;;;;;;34.90;18.15;;;;;;;-3.59;73.03;101064.16;5012463;28;20092;-76
2022/01/24 02:27:26;;;;;;;37.75;20.33;;;;;;;-3.63;72.88;101059.63;5012661;28;20085;-76
2022/01/24 02:30:08;;;;;;;38.38;19.20;;;;;;;-3.64;73.40;101054.44;4996478;28;20029;-76
2022/01/24 02:32:38;;;;;;;35.53;18.58;;;;;;;-3.63;73.51;101059.63;4998207;28;20523;-76
2022/01/24 02:35:05;;;;;;;38.70;20.02;;;;;;;-3.56;73.25;101047.41;5012049;28;20049;-76
2022/01/24 02:37:30;;;;;;;36.58;18.30;;;;;;;-3.58;73.47;101043.09;4996437;28;20597;-76
2022/01/24 02:53:22;;;;;;;39.78;19.30;;;;;;;-3.58;74.14;101058.31;5013178;28;20038;-77
2022/01/24 02:55:48;;;;;;;36.38;18.35;;;;;;;-3.62;73.64;101061.41;4995361;28;20100;-76
2022/01/24 02:58:15;;;;;;;37.08;19.88;;;;;;;-3.63;73.79;101064.69;5011863;28;20041;-77
2022/01/24 03:00:41;;;;;;;32.90;16.75;;;;;;;-3.58;74.48;101055.78;5011959;28;20037;-76
2022/01/24 03:03:07;;;;;;;34.53;18.08;;;;;;;-3.54;73.41;101043.31;5012719;28;20103;-77
2022/01/24 03:05:32;;;;;;;38.83;19.98;;;;;;;-3.53;73.08;101042.53;5012023;28;20041;-77
2022/01/24 03:07:58;;;;;;;39.00;19.90;;;;;;;-3.62;73.56;101058.88;5012793;28;20425;-76
2022/01/24 03:10:28;;;;;;;37.83;20.00;;;;;;;-3.69;73.34;101051.56;5011760;28;20045;-76
2022/01/24 03:15:38;;;;;;;32.75;17.33;;;;;;;-3.76;74.00;101044.25;4997814;28;20049;-77
2022/01/24 03:18:05;;;;;;;38.90;19.80;;;;;;;-3.75;73.58;101029.94;5012903;28;20512;-77
2022/01/24 03:20:31;;;;;;;38.38;19.52;;;;;;;-3.76;73.56;101041.72;4979018;28;20042;-76
2022/01/24 03:22:57;;;;;;;;;;;;;;;-3.70;73.73;101046.38;5028062;28;20038;-77
2022/01/24 03:25:22;;;;;;;38.15;18.70;;;;;;;-3.69;73.77;101041.41;5044528;28;20384;-77
2022/01/24 03:27:48;;;;;;;31.85;16.30;;;;;;;-3.67;73.49;101036.44;5028309;28;20049;-77
2022/01/24 03:30:14;;;;;;;35.17;18.80;;;;;;;-3.68;73.41;101040.66;4994250;28;20095;-76
2022/01/24 03:32:39;;;;;;;33.33;18.27;;;;;;;-3.70;72.88;101043.84;5042697;28;20040;-77
2022/01/24 03:35:07;;;;;;;39.50;18.08;;;;;;;-3.74;73.00;101050.34;4991588;28;20046;-78
2022/01/24 03:37:36;;;;;;;39.75;19.75;;;;;;;-3.81;73.20;101045.56;5028006;28;20042;-78
2022/01/24 03:40:05;;;;;;;33.95;17.70;;;;;;;-3.84;73.83;101046.22;5010073;28;20030;-78
2022/01/24 03:42:31;;;;;;;37.15;18.67;;;;;;;-3.84;73.68;101047.88;4977810;28;20409;-78
2022/01/24 03:45:00;;;;;;;36.53;18.80;;;;;;;-3.85;73.48;101052.09;5027597;28;20034;-77
2022/01/24 03:50:00;;;;;;;39.13;19.98;;;;;;;-4.01;73.38;101039.00;5012446;28;20067;-77
2022/01/24 03:52:25;;;;;;;39.80;18.73;;;;;;;-4.00;74.09;101035.69;4995377;28;20435;-76
2022/01/24 03:54:51;;;;;;;39.13;19.60;;;;;;;-4.03;73.63;101047.25;5012197;28;20054;-78
2022/01/24 03:57:18;;;;;;;40.42;19.27;;;;;;;-4.09;74.05;101047.66;5011027;28;20053;-78
2022/01/24 03:59:43;;;;;;;40.25;20.33;;;;;;;-4.06;74.53;101049.56;5010676;28;20045;-77
2022/01/24 04:02:09;;;;;;;42.85;21.48;;;;;;;-4.12;74.05;101044.94;5011949;28;20029;-78
2022/01/24 04:04:35;;;;;;;35.47;18.00;;;;;;;-4.06;74.15;101055.50;4994189;28;20058;-77
2022/01/24 04:07:01;;;;;;;36.50;18.40;;;;;;;-4.04;73.46;101048.00;5011198;28;20037;-77
2022/01/24 04:09:26;;;;;;;41.72;20.35;;;;;;;-4.11;74.19;101042.50;5010144;28;20041;-77
2022/01/24 04:11:55;;;;;;;41.20;21.42;;;;;;;-4.14;73.84;101052.38;4993586;28;20091;-76
2022/01/24 04:14:28;;;;;;;39.70;20.38;;;;;;;-4.20;74.04;101049.41;5011390;28;20452;-76
2022/01/24 04:17:42;;;;;;;40.97;20.95;;;;;;;-4.21;74.21;101055.25;4994898;28;20042;-76
2022/01/24 04:22:08;;;;;;;40.00;20.30;;;;;;;-4.31;74.32;101051.84;4977699;28;20034;-76
2022/01/24 04:24:33;;;;;;;38.63;19.65;;;;;;;-4.29;74.65;101047.81;4976978;28;20045;-76
2022/01/24 04:26:59;;;;;;;41.70;21.70;;;;;;;-4.37;74.25;101049.75;5011479;28;20038;-78
2022/01/24 04:29:25;;;;;;;39.25;20.67;;;;;;;-4.40;74.78;101047.88;4977708;28;20389;-77
2022/01/24 04:31:50;;;;;;;36.25;19.45;;;;;;;-4.33;74.61;101044.16;5010264;28;20532;-77
2022/01/24 04:34:16;;;;;;;40.85;19.58;;;;;;;-4.38;74.09;101051.38;5011311;28;20052;-76
2022/01/24 04:36:41;;;;;;;40.80;20.48;;;;;;;-4.37;74.67;101062.41;5013926;28;20046;-76
2022/01/24 04:39:07;;;;;;;38.53;19.38;;;;;;;-4.38;74.69;101053.03;4997644;28;20532;-78
2022/01/24 04:41:37;;;;;;;39.10;19.67;;;;;;;-4.38;74.16;101058.13;4997856;28;20045;-78
2022/01/24 04:46:49;;;;;;;39.50;20.30;;;;;;;-4.41;74.64;101053.69;5014657;28;20050;-77
2022/01/24 04:54:42;;;;;;;36.97;19.42;;;;;;;-4.31;74.26;101044.25;5013932;28;20037;-76
2022/01/24 04:57:12;;;;;;;42.03;19.73;;;;;;;-4.35;74.00;101046.56;5013851;28;20048;-77
2022/01/24 04:59:39;;;;;;;35.63;19.90;;;;;;;-4.39;74.29;101042.03;5030493;28;20046;-77
2022/01/24 05:02:04;;;;;;;33.15;17.50;;;;;;;-4.33;74.08;101054.28;4997528;28;20041;-78
2022/01/24 05:04:30;;;;;;;41.55;21.25;;;;;;;-4.31;73.97;101049.31;5013902;28;20057;-78
2022/01/24 05:06:56;;;;;;;37.22;19.75;;;;;;;-4.33;73.88;101054.28;5014818;28;20505;-77
2022/01/24 05:09:22;;;;;;;35.58;19.25;;;;;;;-4.32;73.57;101061.09;5013870;28;20425;-75
2022/01/24 05:11:54;;;;;;;38.75;20.17;;;;;;;-4.41;73.68;101062.94;5013730;28;20042;-76
2022/01/24 05:25:17;;;;;;;35.03;19.42;;;;;;;-4.47;74.34;101062.47;5014415;28;20123;-79
2022/01/24 05:27:43;;;;;;;32.75;17.30;;;;;;;-4.42;73.52;101071.31;5014191;28;20501;-78
2022/01/24 05:30:09;;;;;;;37.55;19.25;;;;;;;-4.52;73.66;101084.00;4997546;28;20048;-77
2022/01/24 05:32:35;;;;;;;38.13;18.90;;;;;;;-4.61;73.62;101077.47;5014717;28;20030;-78
2022/01/24 05:35:01;;;;;;;38.20;19.77;;;;;;;-4.60;73.95;101078.34;5012676;28;20061;-76
2022/01/24 05:37:26;;;;;;;34.45;18.52;;;;;;;-4.61;73.88;101077.47;5029987;28;20042;-80
2022/01/24 05:39:52;;;;;;;36.88;18.88;;;;;;;-4.63;73.48;101073.94;5015026;28;20042;-81
2022/01/24 05:42:21;;;;;;;36.08;18.60;;;;;;;-4.73;73.43;101060.41;4981442;28;20037;-81
2022/01/24 05:44:50;;;;;;;35.95;18.25;;;;;;;-4.73;74.06;101068.00;5013905;28;20044;-76
2022/01/24 05:47:16;;;;;;;37.00;19.45;;;;;;;-4.78;73.94;101085.38;4980618;28;20505;-77
2022/01/24 05:49:42;;;;;;;34.08;17.95;;;;;;;-4.83;73.80;101071.47;4996898;28;20069;-78
2022/01/24 05:52:09;;;;;;;36.95;19.02;;;;;;;-4.88;73.62;101082.88;4980524;28;20224;-78
2022/01/24 05:54:36;;;;;;;38.20;18.95;;;;;;;-4.97;74.27;101079.59;5013195;28;20034;-77
2022/01/24 05:57:03;;;;;;;42.20;20.23;;;;;;;-4.93;74.45;101081.63;5012844;28;20026;-77
2022/01/24 05:59:29;;;;;;;38.95;19.85;;;;;;;-4.97;74.83;101074.53;4996578;28;20049;-76
2022/01/24 06:01:54;;;;;;;39.47;19.33;;;;;;;-4.98;74.86;101081.25;4996742;28;20041;-76
2022/01/24 06:04:20;;;;;;;37.83;20.25;;;;;;;-4.97;74.65;101084.66;5012685;28;20090;-77
2022/01/24 06:06:46;;;;;;;39.55;18.92;;;;;;;-4.97;74.94;101072.00;4996585;28;20420;-78
2022/01/24 06:09:11;;;;;;;37.47;19.67;;;;;;;-4.92;74.80;101083.38;5014260;28;20042;-77
2022/01/24 06:11:37;;;;;;;38.45;20.08;;;;;;;-4.90;74.93;101081.88;4996321;28;20072;-77
2022/01/24 06:14:04;;;;;;;39.50;21.15;;;;;;;-4.97;74.53;101085.53;4996110;28;20038;-77
2022/01/24 06:16:29;;;;;;;42.30;20.65;;;;;;;-5.00;74.94;101080.22;5012778;28;20033;-77
2022/01/24 06:18:55;;;;;;;41.10;20.80;;;;;;;-5.04;74.97;101075.72;5013820;28;20516;-77
2022/01/24 06:21:21;;;;;;;44.75;22.48;;;;;;;-5.08;74.97;101070.28;4996793;28;20061;-77
2022/01/24 06:23:47;;;;;;;37.40;20.67;;;;;;;-5.04;74.83;101069.72;5012775;28;20100;-75
2022/01/24 06:26:13;;;;;;;40.92;20.88;;;;;;;-5.03;74.96;101074.06;4996053;28;20485;-78
2022/01/24 06:28:39;;;;;;;41.80;21.48;;;;;;;-5.07;75.02;101082.16;5013794;28;20414;-78
2022/01/24 06:31:05;;;;;;;40.97;21.23;;;;;;;-5.05;75.15;101085.69;5013915;28;20042;-77
2022/01/24 06:33:31;;;;;;;40.60;21.40;;;;;;;-5.06;74.92;101083.94;5012574;28;20112;-77
2022/01/24 06:35:56;;;;;;;41.08;21.95;;;;;;;-5.09;75.03;101081.13;5012005;28;20579;-77
2022/01/24 06:38:22;;;;;;;41.55;21.77;;;;;;;-5.08;75.50;101070.28;5012238;28;20069;-77
2022/01/24 06:40:48;;;;;;;41.95;22.33;;;;;;;-5.08;75.04;101081.28;4996107;28;20424;-77
2022/01/24 06:43:13;;;;;;;44.35;22.30;;;;;;;-5.07;75.15;101090.63;5012993;28;20041;-78
2022/01/24 06:45:39;;;;;;;44.97;23.63;;;;;;;-5.09;75.30;101088.72;5011785;28;20029;-77
2022/01/24 06:48:05;;;;;;;37.83;20.23;;;;;;;-5.06;74.92;101079.75;4995602;28;20050;-78
2022/01/24 06:50:30;;;;;;;44.67;22.13;;;;;;;-5.01;74.94;101075.06;4995384;28;20041;-76
2022/01/24 06:52:56;;;;;;;39.17;20.92;;;;;;;-5.00;75.04;101075.16;5011591;28;20034;-76
2022/01/24 06:55:22;;;;;;;40.28;21.42;;;;;;;-5.00;75.31;101076.81;5012236;28;20049;-77
2022/01/24 06:57:47;;;;;;;39.47;20.52;;;;;;;-4.97;75.16;101074.53;4995249;28;20049;-78
2022/01/24 07:00:13;;;;;;;41.92;21.05;;;;;;;-4.98;74.61;101085.44;5012189;28;20037;-77
2022/01/24 07:02:39;;;;;;;38.08;20.60;;;;;;;-4.93;74.57;101074.03;5011647;28;20412;-77
2022/01/24 07:05:05;;;;;;;39.95;19.98;;;;;;;-4.85;74.23;101075.53;5012012;28;20066;-77
2022/01/24 07:07:33;;;;;;;41.33;21.17;;;;;;;-4.84;74.10;101072.22;4995738;28;20041;-77
2022/01/24 07:09:58;;;;;;;38.53;19.70;;;;;;;-4.75;73.95;101077.13;4980689;28;20042;-78
2022/01/24 07:12:24;;;;;;;37.95;19.02;;;;;;;-4.72;74.19;101078.28;5013348;28;20049;-77
2022/01/24 07:14:50;;;;;;;30.30;17.13;;;;;;;-4.66;73.29;101078.75;5013431;28;20041;-78
2022/01/24 07:19:42;;;;;;;34.63;18.33;;;;;;;-4.69;73.52;101077.63;4996102;28;20048;-77
2022/01/24 07:22:07;;;;;;;30.60;16.70;;;;;;;-4.57;72.77;101072.66;5028067;28;20085;-76
2022/01/24 07:24:34;;;;;;;34.38;17.30;;;;;;;-4.57;72.79;101072.66;4995617;28;20429;-78
2022/01/24 07:27:00;;;;;;;31.02;16.83;;;;;;;-4.60;73.11;101076.69;5011629;28;20077;-79
2022/01/24 07:29:26;;;;;;;36.03;18.52;;;;;;;-4.61;72.62;101076.56;5012332;28;20068;-79
2022/01/24 07:31:51;;;;;;;36.20;18.02;;;;;;;-4.54;72.13;101070.34;5011723;28;20046;-80
2022/01/24 07:34:17;;;;;;;34.00;18.70;;;;;;;-4.53;72.39;101062.00;4995607;28;20033;-79
2022/01/24 07:36:43;;;;;;;;;;;;;;;-4.49;72.63;101063.97;5013025;28;20059;-76
2022/01/24 07:39:09;;;;;;;35.08;17.80;;;;;;;-4.57;72.06;101070.13;5012833;28;20376;-77
2022/01/24 07:41:42;;;;;;;29.48;16.48;;;;;;;-4.52;72.52;101076.41;5011790;28;20168;-77
2022/01/24 07:44:16;;;;;;;32.97;18.58;;;;;;;-4.52;72.06;101084.00;4997018;28;20049;-78
2022/01/24 07:46:41;;;;;;;34.47;19.50;;;;;;;-4.53;72.83;101084.78;5011785;28;20042;-76
2022/01/24 07:49:10;;;;;;;33.53;17.23;;;;;;;-4.36;72.66;101090.38;4995205;28;20069;-79
2022/01/24 07:51:36;;;;;;;34.55;18.40;;;;;;;-4.27;72.79;101099.47;5011256;28;20116;-79
2022/01/24 07:54:01;;;;;;;37.28;19.45;;;;;;;-4.17;72.33;101089.28;5011417;28;20021;-78
2022/01/24 07:56:27;;;;;;;38.05;19.20;;;;;;;-4.10;71.67;101087.34;4995554;28;20109;-79
2022/01/24 07:58:53;;;;;;;33.72;18.23;;;;;;;-4.10;71.80;101081.38;5028867;28;20468;-77
2022/01/24 08:01:19;;;;;;;34.95;18.05;;;;;;;-4.03;71.20;101090.34;5012516;28;20128;-80
2022/01/24 08:03:45;;;;;;;40.20;20.05;;;;;;;-4.12;71.08;101081.28;5012114;28;20429;-78
2022/01/24 08:06:11;;;;;;;40.65;22.27;;;;;;;-4.15;71.72;101097.88;4994865;28;20531;-78
2022/01/24 08:08:36;;;;;;;36.03;19.65;;;;;;;-4.24;71.10;101087.94;5011447;28;20452;-78
2022/01/24 08:11:02;;;;;;;33.55;17.25;;;;;;;-4.06;71.81;101095.19;5015690;28;20475;-77
2022/01/24 08:13:28;;;;;;;30.83;17.40;;;;;;;-4.00;71.25;101090.56;4999174;28;20137;-78
2022/01/24 08:15:53;;;;;;;33.70;17.77;;;;;;;-3.81;71.04;101083.59;5016715;28;20038;-77
2022/01/24 08:18:19;;;;;;;35.80;19.05;;;;;;;-3.60;70.24;101090.28;4982368;28;20065;-78
2022/01/24 08:20:45;;;;;;;29.45;16.88;;;;;;;-3.41;69.60;101081.53;5014959;28;20068;-77
2022/01/24 08:23:11;;;;;;;33.25;18.23;;;;;;;-3.27;69.05;101078.34;4998541;28;20046;-79
2022/01/24 08:25:37;;;;;;;37.70;18.77;;;;;;;-3.27;67.95;101065.66;5015824;28;20037;-77
2022/01/24 08:28:03;;;;;;;32.20;18.55;;;;;;;-3.15;68.70;101076.72;5015097;28;20064;-77
2022/01/24 08:30:28;;;;;;;30.50;17.83;;;;;;;-3.10;67.83;101079.59;4998974;28;20467;-77
2022/01/24 08:32:54;;;;;;;28.25;17.00;;;;;;;-3.03;68.52;101083.44;4999002;28;20386;-77
2022/01/24 08:35:20;;;;;;;29.42;17.08;;;;;;;-2.94;67.45;101089.19;5016179;28;20045;-78
2022/01/24 08:37:46;;;;;;;28.50;16.25;;;;;;;-2.81;67.08;101086.75;5014841;28;20044;-78
2022/01/24 08:40:21;;;;;;;32.08;17.50;;;;;;;-2.85;66.09;101080.56;4982367;28;20045;-78
2022/01/24 08:43:35;;;;;;;31.17;17.48;;;;;;;-2.77;67.68;101081.13;5015564;28;20095;-77
2022/01/24 08:48:08;;;;;;;25.40;15.45;;;;;;;-2.66;66.14;101070.06;5016227;28;20382;-80
2022/01/24 08:50:34;;;;;;;24.23;13.15;;;;;;;-2.33;67.39;101076.66;4998084;28;20092;-77
2022/01/24 08:52:59;;;;;;;24.10;14.65;;;;;;;-2.40;64.94;101069.38;5014814;28;20036;-77
2022/01/24 08:55:27;;;;;;;26.50;14.40;;;;;;;-2.50;64.70;101071.16;4998287;28;20100;-78
2022/01/24 08:57:54;;;;;;;27.15;15.30;;;;;;;-2.57;64.75;101069.84;5014591;28;20049;-78
2022/01/24 09:00:19;;;;;;;26.23;14.82;;;;;;;-2.74;64.26;101061.03;5015626;28;20389;-82
2022/01/24 09:02:45;;;;;;;23.63;14.30;;;;;;;-2.70;64.86;101068.09;5014269;28;20200;-78
2022/01/24 09:05:11;;;;;;;25.38;14.18;;;;;;;-2.69;64.82;101074.94;4997090;28;20072;-76
2022/01/24 09:07:36;;;;;;;26.80;14.38;;;;;;;-2.84;64.39;101064.59;4981009;28;20042;-78
2022/01/24 09:10:04;;;;;;;23.55;13.15;;;;;;;-2.90;64.96;101075.94;5013371;28;20037;-77
2022/01/24 09:12:30;;;;;;;24.10;13.95;;;;;;;-2.92;65.23;101074.97;4997387;28;20041;-77
2022/01/24 09:14:56;;;;;;;24.90;14.02;;;;;;;-2.90;65.40;101069.19;5013635;28;20060;-77
2022/01/24 09:17:21;;;;;;;24.63;13.85;;;;;;;-3.02;64.66;101064.88;5014181;28;20033;-78
2022/01/24 09:19:49;;;;;;;22.98;13.40;;;;;;;-3.09;65.27;101067.00;5013415;28;20037;-79
2022/01/24 09:22:14;;;;;;;23.73;13.52;;;;;;;-3.15;64.93;101053.00;5014205;28;20128;-77
2022/01/24 09:24:41;;;;;;;21.20;13.32;;;;;;;-3.30;65.13;101057.81;5029304;28;20041;-77
2022/01/24 09:27:06;;;;;;;;;;;;;;;-3.27;65.20;101047.88;4980938;28;20520;-78
2022/01/24 09:29:32;;;;;;;21.58;10.93;;;;;;;-3.10;66.66;101057.63;5029299;28;19917;-77
2022/01/24 09:31:57;;;;;;;23.05;13.98;;;;;;;-3.11;65.04;101047.38;5013092;28;20053;-76
2022/01/24 09:34:23;;;;;;;25.02;14.13;;;;;;;-3.19;65.79;101051.00;4996546;28;20038;-77
2022/01/24 09:36:49;;;;;;;26.58;14.27;;;;;;;-3.19;66.23;101044.25;4996679;28;20113;-77
2022/01/24 09:39:15;;;;;;;27.83;15.50;;;;;;;-3.25;66.32;101053.97;5013974;28;20052;-79
2022/01/24 09:41:41;;;;;;;26.25;15.43;;;;;;;-3.48;65.80;101044.69;5014230;28;20489;-76
2022/01/24 09:44:07;;;;;;;27.55;15.07;;;;;;;-3.54;66.77;101043.31;5012293;28;20041;-78
2022/01/24 09:46:35;;;;;;;24.73;14.23;;;;;;;-3.50;67.38;101032.63;5013124;28;20048;-77
2022/01/24 09:49:01;;;;;;;25.45;14.23;;;;;;;-3.40;67.61;101018.19;5012586;28;20057;-81
2022/01/24 09:51:26;;;;;;;25.02;14.20;;;;;;;-3.42;66.88;101027.34;4996854;28;20038;-78
2022/01/24 09:53:52;;;;;;;25.70;14.93;;;;;;;-3.53;66.51;101019.72;4995769;28;20088;-77
2022/01/24 09:56:19;;;;;;;23.15;14.00;;;;;;;-3.49;67.30;101036.94;4996725;28;20044;-79
2022/01/24 09:58:44;;;;;;;24.25;14.68;;;;;;;-3.50;66.93;101037.72;5013653;28;20040;-79
2022/01/24 10:01:13;;;;;;;21.27;12.13;;;;;;;-3.34;67.37;101033.88;4981081;28;20041;-77
2022/01/24 10:03:39;;;;;;;26.17;12.55;;;;;;;-3.34;66.37;101022.84;4978321;28;1483031;-83
2022/01/24 10:06:05;;;;;;;25.10;12.75;;;;;;;-3.59;66.41;101013.44;5013500;28;20041;-78
2022/01/24 10:08:31;;;;;;;22.30;13.73;;;;;;;-3.69;67.40;101016.06;4997325;28;20081;-78
2022/01/24 10:10:58;;;;;;;;;;;;;;;-3.62;67.90;101015.75;4997539;28;20034;-77
2022/01/24 10:19:16;;;;;;;21.67;13.18;;;;;;;-3.71;66.95;101010.00;5014005;28;20049;-78
2022/01/24 10:21:47;;;;;;;23.52;13.80;;;;;;;-3.69;67.29;101005.91;4996961;28;20524;-77
2022/01/24 10:24:34;;;;;;;25.02;13.90;;;;;;;-3.80;67.06;101000.81;5013974;28;20042;-78
2022/01/24 10:27:20;;;;;;;27.92;13.35;;;;;;;-3.77;67.97;101001.94;5012968;28;20421;-83
2022/01/24 10:29:50;;;;;;;21.33;12.20;;;;;;;-3.61;68.51;100999.75;4981069;28;20052;-78
2022/01/24 10:32:31;;;;;;;20.52;12.73;;;;;;;-3.55;67.66;100998.44;5011995;28;20034;-78
2022/01/24 10:35:17;;;;;;;34.03;19.55;;;;;;;-3.48;67.48;100996.47;5012797;28;20468;-78
2022/01/24 10:37:43;;;;;;;22.30;11.80;;;;;;;-3.29;66.93;100991.09;4998879;28;20053;-77
2022/01/24 10:40:19;;;;;;;23.52;13.82;;;;;;;-3.28;66.36;100990.31;4980221;28;20037;-78
2022/01/24 10:42:55;;;;;;;21.20;13.23;;;;;;;-3.36;66.55;100982.13;4997688;28;20062;-78
2022/01/24 10:45:22;;;;;;;22.30;12.35;;;;;;;-3.43;65.88;100986.66;4980360;28;20509;-76
2022/01/24 10:47:51;;;;;;;21.05;12.25;;;;;;;-3.59;66.54;100984.66;5011722;28;20029;-75
2022/01/24 10:50:23;;;;;;;19.23;11.85;;;;;;;-3.56;65.70;100982.34;4996043;28;20056;-78
2022/01/24 10:52:49;;;;;;;17.40;10.35;;;;;;;-3.56;66.10;100973.88;5013788;28;20037;-77
2022/01/24 10:55:28;;;;;;;18.30;10.40;;;;;;;-3.38;65.10;100978.59;4996032;28;20026;-80
2022/01/24 10:58:09;;;;;;;17.25;10.00;;;;;;;-3.39;63.85;100976.84;4997190;28;20052;-82
2022/01/24 11:00:36;;;;;;;19.30;10.70;;;;;;;-3.40;64.33;100976.72;4981699;28;20415;-78
2022/01/24 11:03:03;;;;;;;17.42;10.93;;;;;;;-3.53;64.68;100969.88;4979871;28;20054;-78
2022/01/24 11:05:39;;;;;;;19.17;10.20;;;;;;;-3.61;65.77;100976.94;5012673;28;20059;-79
2022/01/24 11:08:06;;;;;;;19.23;11.05;;;;;;;-3.47;65.94;100969.47;5012589;28;20042;-77
2022/01/24 11:10:36;;;;;;;19.15;10.93;;;;;;;-3.56;65.11;100972.19;5012809;28;20386;-77
2022/01/24 11:13:04;;;;;;;20.98;12.27;;;;;;;-3.71;65.43;100958.38;5012807;28;20069;-78
2022/01/24 11:15:30;;;;;;;18.17;10.82;;;;;;;-3.80;66.53;100956.09;5012440;28;20033;-78
2022/01/24 11:17:58;;;;;;;24.15;12.75;;;;;;;-3.91;66.50;100945.13;5012837;28;20550;-78
2022/01/24 11:20:29;;;;;;;22.77;12.60;;;;;;;-4.00;66.07;100939.38;4996499;28;20156;-78
2022/01/24 11:23:01;;;;;;;24.42;13.73;;;;;;;-4.09;67.49;100942.09;5012329;28;20504;-77
2022/01/24 11:25:38;;;;;;;24.13;13.15;;;;;;;-4.00;67.20;100943.56;5011930;28;20041;-79
2022/01/24 11:28:05;;;;;;;23.02;12.93;;;;;;;-3.91;68.07;100935.00;5011971;28;20077;-78
2022/01/24 11:30:50;;;;;;;;;;;;;;;-3.89;67.59;100937.66;5028979;28;20500;-77
2022/01/24 11:33:22;;;;;;;23.75;13.50;;;;;;;-3.85;67.24;100932.00;5012277;28;19917;-78
2022/01/24 11:35:54;;;;;;;20.85;11.73;;;;;;;-3.79;66.62;100940.09;5011816;28;20077;-77
2022/01/24 11:38:42;;;;;;;18.40;10.73;;;;;;;-3.80;66.53;100940.88;4980433;28;20042;-78
2022/01/24 11:41:20;;;;;;;22.77;12.50;;;;;;;-3.90;66.53;100935.88;5012207;28;20049;-78
2022/01/24 11:43:48;;;;;;;19.38;10.73;;;;;;;-3.91;66.21;100936.66;5013168;28;20112;-77
2022/01/24 11:46:45;;;;;;;21.85;12.95;;;;;;;-3.98;65.94;100932.78;5011942;28;20044;-77
2022/01/24 11:49:28;;;;;;;21.48;12.13;;;;;;;-4.04;66.73;100927.25;5012210;28;20044;-78
2022/01/24 11:52:12;;;;;;;21.50;11.75;;;;;;;-4.00;66.18;100929.25;4997418;28;20048;-80
2022/01/24 11:57:26;;;;;;;19.73;11.60;;;;;;;-3.91;66.80;100934.09;5011700;28;20079;-78
2022/01/24 12:00:05;;;;;;;20.83;11.70;;;;;;;-3.91;66.67;100940.06;5012438;28;20142;-78
2022/01/24 12:02:40;;;;;;;20.83;11.85;;;;;;;-3.97;66.83;100932.00;5012952;28;20555;-79
2022/01/24 12:05:17;;;;;;;22.42;12.80;;;;;;;-3.99;66.88;100922.50;5013222;28;20137;-78
2022/01/24 12:07:52;;;;;;;20.63;11.98;;;;;;;-3.90;66.39;100926.59;4996621;28;20137;-80
2022/01/24 12:10:25;;;;;;;18.65;10.43;;;;;;;-3.88;66.68;100931.81;5013005;28;20038;-78
2022/01/24 12:12:53;;;;;;;22.85;12.55;;;;;;;-3.96;67.63;100926.16;5011797;28;20050;-78
2022/01/24 12:15:37;;;;;;;25.05;12.65;;;;;;;-4.08;67.35;100915.13;4995137;28;20034;-79
2022/01/24 12:18:10;;;;;;;21.40;12.25;;;;;;;-4.10;67.65;100914.13;5011876;28;20045;-79
2022/01/24 12:20:36;;;;;;;21.42;12.75;;;;;;;-3.90;67.50;100925.72;4979453;28;20042;-79
2022/01/24 12:23:18;;;;;;;19.83;11.52;;;;;;;-3.73;68.02;100924.44;5011389;28;20469;-79
2022/01/24 12:25:58;;;;;;;21.02;12.30;;;;;;;-3.74;66.65;100927.75;5011566;28;20394;-79
2022/01/24 12:28:24;;;;;;;20.13;11.73;;;;;;;-3.78;66.29;100926.63;5011145;28;20416;-77
2022/01/24 12:30:59;;;;;;;20.45;11.35;;;;;;;-3.84;66.14;100921.13;5012912;28;20030;-80
2022/01/24 12:33:54;;;;;;;21.88;11.55;;;;;;;-3.90;66.63;100930.81;5011394;28;20064;-78
2022/01/24 12:36:48;;;;;;;21.35;11.27;;;;;;;-3.86;67.22;100928.59;5011867;28;20054;-78
2022/01/24 12:39:20;;;;;;;23.13;12.13;;;;;;;-3.91;67.38;100918.91;5012925;28;20037;-77
2022/01/24 12:41:53;;;;;;;18.75;10.95;;;;;;;-3.93;67.99;100920.47;5011646;28;20045;-79
2022/01/24 12:47:12;;;;;;;19.35;11.38;;;;;;;-4.05;67.42;100910.28;5012097;28;20103;-81
2022/01/24 12:49:39;;;;;;;22.05;12.80;;;;;;;-4.10;67.44;100907.41;4979263;28;20055;-78
2022/01/24 12:52:15;;;;;;;20.75;11.40;;;;;;;-4.05;67.67;100915.34;4995283;28;20041;-77
2022/01/24 12:54:43;;;;;;;20.30;11.63;;;;;;;-4.00;67.36;100920.75;4996821;28;20519;-78
2022/01/24 12:57:10;;;;;;;19.95;11.18;;;;;;;-4.02;68.01;100910.53;4982138;28;20069;-78
2022/01/24 12:59:37;;;;;;;21.48;12.15;;;;;;;-4.02;67.22;100914.72;4982862;28;20038;-79
2022/01/24 13:02:07;;;;;;;15.27;9.35;;;;;;;-3.85;67.44;100905.03;5015317;28;20093;-81